createdAt,value
2022-09-23T00:01:11.058Z,6.70
2022-09-23T00:03:41.854Z,6.80
2022-09-23T00:06:16.860Z,6.90
2022-09-23T00:08:44.223Z,7.00
2022-09-23T00:11:14.730Z,7.00
2022-09-23T00:13:44.441Z,7.00
2022-09-23T00:16:14.629Z,6.90
2022-09-23T00:18:42.747Z,7.10
2022-09-23T00:21:12.259Z,7.10
2022-09-23T00:23:41.106Z,7.10
2022-09-23T00:26:09.652Z,7.00
2022-09-23T00:28:36.897Z,7.20
2022-09-23T00:31:05.713Z,7.30
2022-09-23T00:33:32.791Z,7.30
2022-09-23T00:36:05.638Z,7.20
2022-09-23T00:38:34.116Z,7.20
2022-09-23T00:41:01.116Z,7.10
2022-09-23T00:43:50.062Z,7.00
2022-09-23T00:46:32.652Z,7.10
2022-09-23T00:49:07.873Z,7.10
2022-09-23T00:51:40.231Z,7.10
2022-09-23T00:54:08.133Z,7.00
2022-09-23T00:56:36.472Z,7.00
2022-09-23T00:59:03.820Z,6.90
2022-09-23T01:01:30.774Z,6.90
2022-09-23T01:03:58.197Z,6.90
2022-09-23T01:06:25.646Z,6.80
2022-09-23T01:08:53.313Z,6.80
2022-09-23T01:12:18.425Z,6.80
2022-09-23T01:15:06.893Z,6.80
2022-09-23T01:17:44.526Z,6.80
2022-09-23T01:20:11.364Z,6.80
2022-09-23T01:23:20.325Z,6.60
2022-09-23T01:26:04.057Z,6.80
2022-09-23T01:28:51.223Z,6.80
2022-09-23T01:31:37.849Z,6.70
2022-09-23T01:34:25.061Z,6.70
2022-09-23T01:37:03.943Z,6.90
2022-09-23T01:39:37.133Z,7.00
2022-09-23T01:42:29.680Z,7.10
2022-09-23T01:45:14.045Z,7.20
2022-09-23T01:47:50.946Z,7.20
2022-09-23T01:50:50.750Z,7.20
2022-09-23T01:53:24.377Z,7.20
2022-09-23T01:55:58.944Z,7.20
2022-09-23T01:58:28.719Z,7.40
2022-09-23T02:01:02.821Z,7.50
2022-09-23T02:03:55.275Z,7.40
2022-09-23T02:06:33.656Z,7.50
2022-09-23T02:09:06.155Z,7.50
2022-09-23T02:11:36.446Z,7.40
2022-09-23T02:14:22.012Z,7.50
2022-09-23T02:16:56.097Z,7.50
2022-09-23T02:19:29.940Z,7.50
2022-09-23T02:22:07.051Z,7.40
2022-09-23T02:24:38.572Z,7.40
2022-09-23T02:27:26.176Z,7.40
2022-09-23T02:30:02.894Z,7.40
2022-09-23T02:32:37.797Z,7.50
2022-09-23T02:35:23.528Z,7.50
2022-09-23T02:38:15.674Z,7.60
2022-09-23T02:41:07.538Z,7.50
2022-09-23T02:43:49.452Z,7.60
2022-09-23T02:46:17.204Z,7.60
2022-09-23T02:48:53.286Z,7.60
2022-09-23T02:51:20.391Z,7.60
2022-09-23T02:53:47.803Z,7.60
2022-09-23T02:56:20.304Z,7.60
2022-09-23T02:58:51.976Z,7.70
2022-09-23T03:01:47.744Z,7.60
2022-09-23T03:04:38.461Z,7.70
2022-09-23T03:07:19.145Z,7.90
2022-09-23T03:10:07.320Z,7.80
2022-09-23T03:12:42.332Z,7.80
2022-09-23T03:15:24.564Z,7.80
2022-09-23T03:18:20.464Z,7.80
2022-09-23T03:20:52.442Z,7.80
2022-09-23T03:23:25.334Z,7.80
2022-09-23T03:25:55.675Z,7.80
2022-09-23T03:28:25.477Z,7.80
2022-09-23T03:30:54.620Z,7.70
2022-09-23T03:33:28.493Z,7.90
2022-09-23T03:36:27.926Z,7.90
2022-09-23T03:39:03.954Z,7.90
2022-09-23T03:41:38.021Z,7.90
2022-09-23T03:44:07.244Z,8.00
2022-09-23T03:46:35.545Z,8.10
2022-09-23T03:49:18.419Z,8.20
2022-09-23T03:51:45.313Z,8.20
2022-09-23T03:54:12.309Z,8.10
2022-09-23T03:56:39.196Z,8.00
2022-09-23T03:59:06.014Z,8.10
2022-09-23T04:01:32.887Z,8.10
2022-09-23T04:04:00.203Z,8.00
2022-09-23T04:06:27.022Z,8.00
2022-09-23T04:08:53.927Z,8.00
2022-09-23T04:11:20.798Z,8.00
2022-09-23T04:13:47.623Z,8.00
2022-09-23T04:16:14.643Z,8.10
2022-09-23T04:18:41.546Z,8.10
2022-09-23T04:21:08.348Z,8.20
2022-09-23T04:23:35.375Z,8.20
2022-09-23T04:26:02.322Z,8.10
2022-09-23T04:28:29.197Z,8.20
2022-09-23T04:30:57.852Z,8.20
2022-09-23T04:33:25.558Z,8.20
2022-09-23T04:35:52.486Z,8.20
2022-09-23T04:38:19.758Z,8.20
2022-09-23T04:40:46.891Z,8.20
2022-09-23T04:43:16.085Z,8.10
2022-09-23T04:45:43.843Z,8.20
2022-09-23T04:48:12.842Z,8.10
2022-09-23T04:50:39.767Z,8.10
2022-09-23T04:53:06.834Z,8.00
2022-09-23T04:55:33.769Z,8.10
2022-09-23T04:58:00.590Z,8.20
2022-09-23T05:00:28.801Z,8.20
2022-09-23T05:02:55.758Z,8.20
2022-09-23T05:05:24.296Z,8.30
2022-09-23T05:07:51.826Z,8.20
2022-09-23T05:10:18.698Z,8.20
2022-09-23T05:12:45.578Z,8.20
2022-09-23T05:15:14.887Z,8.20
2022-09-23T05:17:42.987Z,8.20
2022-09-23T05:20:11.579Z,8.10
2022-09-23T05:22:38.379Z,8.40
2022-09-23T05:25:05.645Z,8.40
2022-09-23T05:27:32.489Z,8.40
2022-09-23T05:29:59.377Z,8.40
2022-09-23T05:32:26.431Z,8.40
2022-09-23T05:34:55.258Z,8.50
2022-09-23T05:37:22.940Z,8.50
2022-09-23T05:39:49.764Z,8.50
2022-09-23T05:42:18.258Z,8.60
2022-09-23T05:44:47.150Z,8.60
2022-09-23T05:47:14.491Z,8.70
2022-09-23T05:49:58.487Z,8.70
2022-09-23T05:52:26.513Z,8.90
2022-09-23T05:54:53.843Z,8.80
2022-09-23T05:57:21.528Z,8.90
2022-09-23T05:59:48.570Z,9.00
2022-09-23T06:02:15.484Z,9.00
2022-09-23T06:04:43.153Z,9.10
2022-09-23T06:07:10.869Z,9.20
2022-09-23T06:09:37.875Z,9.30
2022-09-23T06:12:05.259Z,9.30
2022-09-23T06:14:32.137Z,9.30
2022-09-23T06:16:58.953Z,9.30
2022-09-23T06:19:25.793Z,9.30
2022-09-23T06:21:52.945Z,9.40
2022-09-23T06:28:11.618Z,9.50
2022-09-23T06:30:42.713Z,9.60
2022-09-23T06:33:10.239Z,9.70
2022-09-23T06:35:37.338Z,9.70
2022-09-23T06:38:05.066Z,9.80
2022-09-23T06:40:32.697Z,9.90
2022-09-23T06:43:01.196Z,9.90
2022-09-23T06:45:28.751Z,9.90
2022-09-23T06:47:57.957Z,9.90
2022-09-23T06:50:28.189Z,10.00
2022-09-23T06:52:56.314Z,10.10
2022-09-23T06:55:24.689Z,10.20
2022-09-23T06:57:51.706Z,10.40
2022-09-23T07:00:19.305Z,10.40
2022-09-23T07:02:46.448Z,10.50
2022-09-23T07:05:13.628Z,10.50
2022-09-23T07:07:41.384Z,10.60
2022-09-23T07:10:08.661Z,10.70
2022-09-23T07:12:35.556Z,10.80
2022-09-23T07:15:02.514Z,10.80
2022-09-23T07:17:29.665Z,10.90
2022-09-23T07:19:57.452Z,11.10
2022-09-23T07:22:26.525Z,11.20
2022-09-23T07:24:58.548Z,11.30
2022-09-23T07:27:27.380Z,11.30
2022-09-23T07:29:55.125Z,11.50
2022-09-23T07:32:23.278Z,11.50
2022-09-23T07:34:51.361Z,11.60
2022-09-23T07:37:18.541Z,11.70
2022-09-23T07:39:45.862Z,11.80
2022-09-23T07:42:14.330Z,11.90
2022-09-23T07:44:44.143Z,12.10
2022-09-23T07:47:11.530Z,12.10
2022-09-23T07:49:38.581Z,12.30
2022-09-23T07:55:55.974Z,12.50
2022-09-23T07:58:23.620Z,12.70
2022-09-23T08:04:37.239Z,12.90
2022-09-23T08:07:05.561Z,13.10
2022-09-23T08:13:13.458Z,13.30
2022-09-23T08:15:40.496Z,13.40
2022-09-23T08:18:07.388Z,13.50
2022-09-23T08:20:47.816Z,13.60
2022-09-23T08:23:16.771Z,13.70
2022-09-23T08:25:47.100Z,13.80
2022-09-23T08:28:18.855Z,14.00
2022-09-23T08:30:48.942Z,14.10
2022-09-23T08:33:20.994Z,14.20
2022-09-23T08:35:49.630Z,14.30
2022-09-23T08:38:16.709Z,14.30
2022-09-23T08:40:47.474Z,14.10
2022-09-23T08:43:33.005Z,14.00
2022-09-23T08:46:06.220Z,14.00
2022-09-23T08:48:38.591Z,14.10
2022-09-23T08:51:08.472Z,14.20
2022-09-23T08:53:37.674Z,14.10
2022-09-23T08:56:07.547Z,14.00
2022-09-23T08:58:52.829Z,14.10
2022-09-23T09:01:26.798Z,14.30
2022-09-23T09:04:00.130Z,14.60
2022-09-23T09:06:52.360Z,14.90
2022-09-23T09:09:32.859Z,14.90
2022-09-23T09:12:18.459Z,15.10
2022-09-23T09:15:29.264Z,15.30
2022-09-23T09:18:07.891Z,15.40
2022-09-23T09:20:41.335Z,15.70
2022-09-23T09:23:33.943Z,15.00
2022-09-23T09:26:05.879Z,15.40
2022-09-23T09:28:40.000Z,15.40
2022-09-23T09:31:34.786Z,15.30
2022-09-23T09:34:30.758Z,15.40
2022-09-23T09:37:35.930Z,15.30
2022-09-23T09:40:03.160Z,15.30
2022-09-23T09:42:46.908Z,15.50
2022-09-23T09:45:40.834Z,15.30
2022-09-23T09:48:12.135Z,15.40
2022-09-23T09:50:51.401Z,15.20
2022-09-23T09:53:35.811Z,15.20
2022-09-23T09:59:28.844Z,15.70
2022-09-23T10:02:23.316Z,16.00
2022-09-23T10:05:02.679Z,16.10
2022-09-23T10:07:31.970Z,16.30
2022-09-23T10:10:28.811Z,15.90
2022-09-23T10:13:15.295Z,16.00
2022-09-23T10:15:45.444Z,15.70
2022-09-23T10:18:23.049Z,15.70
2022-09-23T10:20:50.669Z,15.50
2022-09-23T10:23:25.290Z,15.50
2022-09-23T10:26:05.579Z,15.40
2022-09-23T10:28:38.519Z,15.40
2022-09-23T10:31:12.711Z,15.50
2022-09-23T10:33:49.409Z,15.80
2022-09-23T10:36:17.947Z,15.80
2022-09-23T10:38:48.275Z,15.70
2022-09-23T10:42:00.849Z,15.90
2022-09-23T10:45:14.221Z,15.90
2022-09-23T10:48:06.807Z,16.10
2022-09-23T10:50:38.502Z,15.80
2022-09-23T10:53:28.305Z,15.90
2022-09-23T10:56:14.206Z,16.20
2022-09-23T10:59:06.005Z,16.50
2022-09-23T11:02:02.602Z,16.10
2022-09-23T11:05:00.169Z,15.90
2022-09-23T11:07:37.245Z,15.70
2022-09-23T11:10:41.907Z,15.70
2022-09-23T11:13:18.368Z,15.50
2022-09-23T11:15:50.732Z,15.70
2022-09-23T11:18:32.914Z,15.60
2022-09-23T11:21:07.260Z,15.50
2022-09-23T11:24:01.441Z,15.60
2022-09-23T11:26:53.172Z,15.60
2022-09-23T11:29:50.661Z,15.50
2022-09-23T11:36:30.237Z,15.50
2022-09-23T11:39:00.480Z,15.60
2022-09-23T11:41:34.692Z,15.60
2022-09-23T11:44:21.642Z,15.40
2022-09-23T11:47:14.136Z,15.40
2022-09-23T11:49:49.840Z,15.70
2022-09-23T11:52:26.609Z,15.60
2022-09-23T11:55:20.300Z,15.60
2022-09-23T11:58:22.685Z,15.60
2022-09-23T12:01:07.692Z,15.50
2022-09-23T12:03:53.922Z,15.40
2022-09-23T12:06:33.515Z,15.40
2022-09-23T12:09:04.308Z,15.30
2022-09-23T12:11:58.418Z,15.40
2022-09-23T12:14:50.298Z,15.70
2022-09-23T12:17:19.871Z,16.00
2022-09-23T12:19:54.750Z,16.20
2022-09-23T12:22:21.529Z,16.30
2022-09-23T12:24:58.502Z,16.40
2022-09-23T12:27:45.403Z,16.40
2022-09-23T12:30:23.233Z,16.60
2022-09-23T12:32:50.398Z,16.80
2022-09-23T12:35:37.848Z,16.80
2022-09-23T12:38:14.927Z,17.00
2022-09-23T12:40:43.655Z,17.10
2022-09-23T12:43:30.521Z,17.40
2022-09-23T12:46:19.682Z,17.30
2022-09-23T12:48:59.152Z,17.20
2022-09-23T12:51:34.854Z,17.00
2022-09-23T12:54:04.614Z,16.70
2022-09-23T12:56:34.520Z,16.50
2022-09-23T12:59:21.237Z,16.60
2022-09-23T13:01:48.351Z,16.50
2022-09-23T13:04:47.340Z,16.40
2022-09-23T13:07:30.098Z,16.50
2022-09-23T13:10:22.288Z,16.60
2022-09-23T13:12:49.858Z,16.60
2022-09-23T13:15:26.613Z,16.80
2022-09-23T13:17:53.530Z,16.60
2022-09-23T13:20:20.673Z,16.50
2022-09-23T13:22:53.194Z,16.50
2022-09-23T13:25:24.554Z,16.60
2022-09-23T13:27:59.001Z,16.40
2022-09-23T13:30:26.926Z,16.30
2022-09-23T13:36:46.589Z,16.60
2022-09-23T13:39:29.431Z,16.40
2022-09-23T13:42:01.650Z,16.20
2022-09-23T13:44:29.812Z,16.20
2022-09-23T13:47:02.317Z,16.20
2022-09-23T13:49:35.406Z,16.20
2022-09-23T13:52:03.301Z,16.10
2022-09-23T13:54:33.505Z,16.20
2022-09-23T13:57:00.628Z,16.00
2022-09-23T13:59:28.689Z,16.00
2022-09-23T14:02:14.370Z,15.80
2022-09-23T14:04:41.539Z,15.50
2022-09-23T14:07:10.753Z,15.50
2022-09-23T14:09:41.540Z,15.60
2022-09-23T14:12:10.064Z,15.40
2022-09-23T14:14:40.162Z,15.40
2022-09-23T14:17:08.875Z,15.40
2022-09-23T14:19:37.137Z,15.40
2022-09-23T14:22:04.189Z,15.40
2022-09-23T14:24:36.640Z,15.30
2022-09-23T14:27:16.404Z,15.50
2022-09-23T14:29:45.918Z,15.30
2022-09-23T14:32:21.303Z,15.20
2022-09-23T14:35:00.464Z,15.10
2022-09-23T14:37:48.780Z,15.10
2022-09-23T14:40:21.740Z,14.90
2022-09-23T14:42:52.217Z,14.70
2022-09-23T14:45:22.748Z,14.60
2022-09-23T14:48:00.022Z,14.40
2022-09-23T14:50:47.587Z,14.30
2022-09-23T14:53:19.041Z,14.20
2022-09-23T14:55:47.791Z,14.20
2022-09-23T14:58:19.369Z,14.10
2022-09-23T15:01:24.446Z,14.20
2022-09-23T15:03:51.932Z,14.10
2022-09-23T15:06:19.914Z,14.00
2022-09-23T15:08:47.035Z,14.00
2022-09-23T15:11:13.939Z,13.90
2022-09-23T15:13:49.452Z,13.90
2022-09-23T15:16:23.427Z,13.90
2022-09-23T15:18:55.821Z,13.80
2022-09-23T15:21:23.995Z,13.70
2022-09-23T15:23:52.884Z,13.70
2022-09-23T15:26:22.826Z,13.70
2022-09-23T15:28:55.997Z,13.60
2022-09-23T15:31:26.620Z,13.60
2022-09-23T15:33:53.632Z,13.50
2022-09-23T15:36:23.960Z,13.50
2022-09-23T15:38:50.822Z,13.50
2022-09-23T15:41:17.890Z,13.40
2022-09-23T15:43:45.131Z,13.40
2022-09-23T15:46:18.871Z,13.30
2022-09-23T15:49:05.058Z,13.30
2022-09-23T15:51:32.092Z,13.10
2022-09-23T15:53:58.900Z,13.10
2022-09-23T15:56:27.235Z,13.00
2022-09-23T15:58:54.135Z,12.90
2022-09-23T16:01:27.810Z,12.80
2022-09-23T16:03:55.786Z,12.70
2022-09-23T16:06:24.388Z,12.70
2022-09-23T16:08:52.361Z,12.60
2022-09-23T16:11:28.369Z,12.60
2022-09-23T16:13:55.225Z,12.50
2022-09-23T16:16:22.221Z,12.50
2022-09-23T16:18:51.304Z,12.40
2022-09-23T16:21:20.435Z,12.40
2022-09-23T16:23:49.424Z,12.30
2022-09-23T16:26:48.722Z,12.30
2022-09-23T16:29:15.634Z,12.20
2022-09-23T16:31:42.680Z,12.20
2022-09-23T16:34:09.832Z,12.10
2022-09-23T16:36:41.162Z,12.10
2022-09-23T16:39:11.427Z,12.00
2022-09-23T16:41:38.267Z,11.90
2022-09-23T16:44:07.483Z,11.80
2022-09-23T16:46:35.408Z,11.70
2022-09-23T16:49:02.938Z,11.60
2022-09-23T16:51:38.710Z,11.50
2022-09-23T16:54:11.257Z,11.40
2022-09-23T16:56:43.807Z,11.30
2022-09-23T16:59:11.737Z,11.20
2022-09-23T17:01:57.497Z,11.10
2022-09-23T17:04:24.654Z,11.00
2022-09-23T17:06:53.121Z,10.90
2022-09-23T17:09:22.786Z,10.80
2022-09-23T17:12:13.808Z,10.70
2022-09-23T17:14:40.808Z,10.60
2022-09-23T17:17:07.652Z,10.50
2022-09-23T17:19:34.836Z,10.40
2022-09-23T17:22:01.644Z,10.30
2022-09-23T17:24:28.470Z,10.20
2022-09-23T17:26:55.476Z,10.10
2022-09-23T17:29:22.343Z,10.10
2022-09-23T17:31:49.226Z,10.10
2022-09-23T17:34:18.803Z,10.10
2022-09-23T17:36:45.987Z,10.00
2022-09-23T17:39:12.845Z,10.00
2022-09-23T17:41:39.694Z,9.90
2022-09-23T17:44:08.136Z,9.90
2022-09-23T17:46:35.004Z,9.90
2022-09-23T17:49:01.821Z,9.80
2022-09-23T17:51:28.649Z,9.70
2022-09-23T17:53:55.724Z,9.70
2022-09-23T17:56:30.011Z,9.60
2022-09-23T17:59:01.809Z,9.60
2022-09-23T18:01:29.414Z,9.60
2022-09-23T18:04:05.719Z,9.50
2022-09-23T18:06:35.681Z,9.40
2022-09-23T18:09:04.761Z,9.30
2022-09-23T18:11:34.307Z,9.30
2022-09-23T18:14:05.015Z,9.20
2022-09-23T18:16:36.152Z,9.10
2022-09-23T18:19:04.448Z,9.10
2022-09-23T18:21:34.087Z,9.10
2022-09-23T18:26:53.025Z,9.10
2022-09-23T18:29:19.950Z,9.20
2022-09-23T18:31:49.389Z,9.10
2022-09-23T18:34:16.998Z,9.10
2022-09-23T18:36:44.411Z,8.90
2022-09-23T18:39:11.744Z,8.90
2022-09-23T18:41:39.086Z,8.90
2022-09-23T18:44:06.120Z,8.70
2022-09-23T18:46:33.070Z,8.70
2022-09-23T18:49:18.519Z,8.70
2022-09-23T18:51:56.897Z,8.60
2022-09-23T18:54:27.380Z,8.60
2022-09-23T18:56:54.701Z,8.50
2022-09-23T18:59:25.220Z,8.50
2022-09-23T19:01:55.694Z,8.50
2022-09-23T19:04:24.609Z,8.40
2022-09-23T19:06:51.855Z,8.40
2022-09-23T19:09:19.411Z,8.50
2022-09-23T19:11:46.900Z,8.40
2022-09-23T19:14:13.977Z,8.50
2022-09-23T19:16:41.590Z,8.60
2022-09-23T19:19:09.014Z,8.60
2022-09-23T19:21:37.435Z,8.60
2022-09-23T19:24:07.504Z,8.60
2022-09-23T19:26:39.956Z,8.60
2022-09-23T19:29:08.592Z,8.50
2022-09-23T19:31:40.592Z,8.40
2022-09-23T19:34:16.673Z,8.30
2022-09-23T19:36:46.052Z,8.30
2022-09-23T19:39:23.845Z,8.30
2022-09-23T19:41:52.635Z,8.20
2022-09-23T19:44:20.269Z,8.20
2022-09-23T19:46:55.044Z,8.10
2022-09-23T19:49:24.676Z,8.10
2022-09-23T19:51:55.483Z,8.00
2022-09-23T19:54:23.466Z,8.00
2022-09-23T19:56:50.759Z,8.00
2022-09-23T19:59:19.580Z,7.90
2022-09-23T20:01:48.401Z,7.90
2022-09-23T20:04:16.167Z,7.90
2022-09-23T20:06:43.330Z,7.90
2022-09-23T20:09:10.321Z,7.90
2022-09-23T20:11:37.263Z,7.80
2022-09-23T20:14:06.263Z,7.70
2022-09-23T20:16:35.645Z,7.80
2022-09-23T20:19:04.407Z,7.70
2022-09-23T20:21:32.077Z,7.70
2022-09-23T20:23:59.298Z,7.60
2022-09-23T20:26:44.853Z,7.50
2022-09-23T20:29:12.227Z,7.50
2022-09-23T20:31:41.577Z,7.50
2022-09-23T20:34:10.994Z,7.50
2022-09-23T20:36:41.009Z,7.50
2022-09-23T20:39:09.688Z,7.50
2022-09-23T20:41:38.448Z,7.50
2022-09-23T20:44:09.240Z,7.40
2022-09-23T20:46:36.226Z,7.40
2022-09-23T20:49:03.836Z,7.30
2022-09-23T20:51:33.407Z,7.20
2022-09-23T20:54:00.579Z,7.00
2022-09-23T20:56:27.988Z,7.00
2022-09-23T20:58:59.497Z,7.00
2022-09-23T21:01:27.816Z,7.00
2022-09-23T21:03:56.266Z,7.00
2022-09-23T21:06:26.474Z,6.90
2022-09-23T21:08:54.688Z,6.90
2022-09-23T21:11:22.090Z,6.90
2022-09-23T21:13:51.031Z,6.90
2022-09-23T21:16:22.135Z,7.00
2022-09-23T21:18:50.568Z,7.00
2022-09-23T21:21:19.656Z,6.90
2022-09-23T21:23:47.304Z,6.80
2022-09-23T21:26:20.248Z,6.70
2022-09-23T21:28:49.707Z,6.70
2022-09-23T21:31:26.014Z,6.60
2022-09-23T21:33:59.143Z,6.60
2022-09-23T21:36:28.256Z,6.60
2022-09-23T21:38:56.150Z,6.60
2022-09-23T21:41:23.776Z,6.60
2022-09-23T21:43:51.235Z,6.70
2022-09-23T21:46:20.772Z,6.60
2022-09-23T21:48:52.973Z,6.50
2022-09-23T21:51:25.600Z,6.60
2022-09-23T21:53:54.808Z,6.60
2022-09-23T21:56:31.401Z,6.70
2022-09-23T21:59:02.317Z,6.70
2022-09-23T22:01:33.689Z,6.80
2022-09-23T22:04:07.984Z,6.70
2022-09-23T22:06:38.194Z,6.60
2022-09-23T22:09:10.733Z,6.60
2022-09-23T22:11:57.353Z,6.50
2022-09-23T22:14:26.400Z,6.50
2022-09-23T22:16:57.913Z,6.50
2022-09-23T22:19:26.994Z,6.50
2022-09-23T22:21:55.941Z,6.40
2022-09-23T22:24:23.267Z,6.50
2022-09-23T22:26:50.556Z,6.60
2022-09-23T22:29:36.243Z,6.60
2022-09-23T22:32:23.462Z,6.70
2022-09-23T22:34:51.812Z,6.70
2022-09-23T22:37:21.591Z,6.60
2022-09-23T22:39:48.689Z,6.60
2022-09-23T22:42:16.192Z,6.70
2022-09-23T22:44:43.162Z,6.60
2022-09-23T22:47:10.575Z,6.60
2022-09-23T22:49:37.682Z,6.60
2022-09-23T22:52:08.064Z,6.60
2022-09-23T22:54:35.324Z,6.50
2022-09-23T22:57:05.180Z,6.50
2022-09-23T22:59:32.354Z,6.50
2022-09-23T23:02:03.041Z,6.50
2022-09-23T23:04:30.563Z,6.60
2022-09-23T23:06:58.869Z,6.50
2022-09-23T23:09:25.939Z,6.50
2022-09-23T23:11:52.931Z,6.50
2022-09-23T23:14:19.917Z,6.50
2022-09-23T23:16:47.404Z,6.50
2022-09-23T23:19:17.255Z,6.60
2022-09-23T23:21:45.013Z,6.60
2022-09-23T23:24:20.512Z,6.60
2022-09-23T23:26:48.024Z,6.60
2022-09-23T23:29:17.565Z,6.50
2022-09-23T23:31:45.223Z,6.50
2022-09-23T23:34:14.550Z,6.50
2022-09-23T23:36:43.702Z,6.50
2022-09-23T23:39:11.170Z,6.40
2022-09-23T23:41:39.642Z,6.40
2022-09-23T23:44:07.869Z,6.40
2022-09-23T23:46:35.516Z,6.30
2022-09-23T23:49:02.691Z,6.40
2022-09-23T23:51:30.104Z,6.40
2022-09-23T23:53:58.783Z,6.30
2022-09-23T23:56:26.862Z,6.30
2022-09-23T23:58:55.767Z,6.20
